createdAt,value
2022-09-12T00:04:28.327Z,100.00
2022-09-12T00:09:29.917Z,100.00
2022-09-12T00:14:34.997Z,100.00
2022-09-12T00:19:36.405Z,100.00
2022-09-12T00:24:37.844Z,100.00
2022-09-12T00:29:39.251Z,100.00
2022-09-12T00:34:40.712Z,100.00
2022-09-12T00:39:43.493Z,100.00
2022-09-12T00:44:50.141Z,100.00
2022-09-12T00:50:00.866Z,100.00
2022-09-12T00:55:05.226Z,100.00
2022-09-12T01:00:15.635Z,100.00
2022-09-12T01:05:17.531Z,100.00
2022-09-12T01:10:20.317Z,100.00
2022-09-12T01:15:22.664Z,100.00
2022-09-12T01:20:41.476Z,100.00
2022-09-12T01:26:01.805Z,100.00
2022-09-12T01:31:28.750Z,100.00
2022-09-12T01:37:08.287Z,100.00
2022-09-12T01:42:31.573Z,100.00
2022-09-12T01:47:54.533Z,100.00
2022-09-12T01:53:08.009Z,100.00
2022-09-12T01:58:14.492Z,100.00
2022-09-12T02:03:24.090Z,100.00
2022-09-12T02:08:31.358Z,100.00
2022-09-12T02:13:46.808Z,100.00
2022-09-12T02:18:55.317Z,100.00
2022-09-12T02:24:01.275Z,100.00
2022-09-12T02:29:04.419Z,100.00
2022-09-12T02:34:09.743Z,100.00
2022-09-12T02:39:11.163Z,100.00
2022-09-12T02:44:12.807Z,100.00
2022-09-12T02:49:16.546Z,100.00
2022-09-12T02:54:19.836Z,100.00
2022-09-12T02:59:24.251Z,100.00
2022-09-12T03:05:02.723Z,100.00
2022-09-12T03:10:32.686Z,100.00
2022-09-12T03:15:42.979Z,100.00
2022-09-12T03:21:09.780Z,100.00
2022-09-12T03:26:26.161Z,100.00
2022-09-12T03:31:27.657Z,100.00
2022-09-12T03:36:30.410Z,100.00
2022-09-12T03:41:31.829Z,100.00
2022-09-12T03:46:33.702Z,100.00
2022-09-12T03:51:35.140Z,100.00
2022-09-12T03:56:36.986Z,100.00
2022-09-12T04:01:38.397Z,100.00
2022-09-12T04:06:39.778Z,100.00
2022-09-12T04:11:41.380Z,100.00
2022-09-12T04:16:42.870Z,100.00
2022-09-12T04:21:44.378Z,100.00
2022-09-12T04:26:45.946Z,100.00
2022-09-12T04:31:48.310Z,100.00
2022-09-12T04:36:49.750Z,100.00
2022-09-12T04:41:51.838Z,100.00
2022-09-12T04:46:53.322Z,100.00
2022-09-12T04:51:57.587Z,100.00
2022-09-12T04:56:59.834Z,100.00
2022-09-12T05:02:02.183Z,100.00
2022-09-12T05:07:05.247Z,100.00
2022-09-12T05:12:07.551Z,100.00
2022-09-12T05:17:09.114Z,100.00
2022-09-12T05:22:10.575Z,100.00
2022-09-12T05:27:11.962Z,100.00
2022-09-12T05:32:13.605Z,100.00
2022-09-12T05:37:15.105Z,100.00
2022-09-12T05:42:16.507Z,100.00
2022-09-12T05:47:18.811Z,100.00
2022-09-12T05:52:20.313Z,100.00
2022-09-12T05:57:21.842Z,100.00
2022-09-12T06:02:23.281Z,100.00
2022-09-12T06:07:24.758Z,100.00
2022-09-12T06:12:29.875Z,100.00
2022-09-12T06:17:31.372Z,100.00
2022-09-12T06:22:32.880Z,100.00
2022-09-12T06:27:34.273Z,100.00
2022-09-12T06:32:35.930Z,100.00
2022-09-12T06:37:37.351Z,100.00
2022-09-12T06:42:38.868Z,100.00
2022-09-12T06:47:40.437Z,100.00
2022-09-12T06:52:41.875Z,100.00
2022-09-12T06:57:43.992Z,100.00
2022-09-12T07:02:45.675Z,100.00
2022-09-12T07:07:47.185Z,100.00
2022-09-12T07:12:48.726Z,100.00
2022-09-12T07:17:50.124Z,100.00
2022-09-12T07:22:51.811Z,100.00
2022-09-12T07:27:53.597Z,100.00
2022-09-12T07:32:55.082Z,100.00
2022-09-12T07:37:56.485Z,100.00
2022-09-12T07:42:58.819Z,100.00
2022-09-12T07:48:00.862Z,100.00
2022-09-12T07:53:03.720Z,100.00
2022-09-12T07:58:05.177Z,100.00
2022-09-12T08:03:07.181Z,100.00
2022-09-12T08:08:08.728Z,100.00
2022-09-12T08:13:10.874Z,100.00
2022-09-12T08:18:12.571Z,100.00
2022-09-12T08:23:14.300Z,100.00
2022-09-12T08:28:17.239Z,100.00
2022-09-12T08:33:18.768Z,99.78
2022-09-12T08:38:20.486Z,98.78
2022-09-12T08:44:13.512Z,97.73
2022-09-12T08:49:37.001Z,93.21
2022-09-12T08:54:39.479Z,91.42
2022-09-12T08:59:45.943Z,92.92
2022-09-12T09:04:52.770Z,92.33
2022-09-12T09:10:00.324Z,90.11
2022-09-12T09:15:21.986Z,89.34
2022-09-12T09:20:33.303Z,89.68
2022-09-12T09:25:56.837Z,88.29
2022-09-12T09:30:58.613Z,87.77
2022-09-12T09:36:16.862Z,86.52
2022-09-12T09:41:41.335Z,85.53
2022-09-12T09:46:42.995Z,86.56
2022-09-12T09:51:45.246Z,82.96
2022-09-12T09:56:47.454Z,81.58
2022-09-12T10:01:57.531Z,80.76
2022-09-12T10:07:01.242Z,80.60
2022-09-12T10:12:24.985Z,77.41
2022-09-12T10:17:44.113Z,76.35
2022-09-12T10:22:47.593Z,76.50
2022-09-12T10:27:58.462Z,75.26
2022-09-12T10:33:08.767Z,73.67
2022-09-12T10:38:21.310Z,71.64
2022-09-12T10:43:38.936Z,73.79
2022-09-12T10:48:40.556Z,70.48
2022-09-12T10:53:46.249Z,70.64
2022-09-12T10:59:08.591Z,67.49
2022-09-12T11:04:22.042Z,68.07
2022-09-12T11:09:23.878Z,62.36
2022-09-12T11:14:36.613Z,64.87
2022-09-12T11:19:54.456Z,63.22
2022-09-12T11:25:12.127Z,63.91
2022-09-12T11:30:17.359Z,66.22
2022-09-12T11:35:24.677Z,62.57
2022-09-12T11:40:38.231Z,59.58
2022-09-12T11:45:45.835Z,59.71
2022-09-12T11:50:47.410Z,55.66
2022-09-12T11:55:56.579Z,56.22
2022-09-12T12:01:03.132Z,55.74
2022-09-12T12:06:12.435Z,55.36
2022-09-12T12:11:25.575Z,55.26
2022-09-12T12:16:30.667Z,54.53
2022-09-12T12:21:47.942Z,56.53
2022-09-12T12:26:58.611Z,55.28
2022-09-12T12:32:00.553Z,53.36
2022-09-12T12:37:20.800Z,53.51
2022-09-12T12:42:34.363Z,53.99
2022-09-12T12:47:35.707Z,55.67
2022-09-12T12:53:00.940Z,53.87
2022-09-12T12:58:03.933Z,53.74
2022-09-12T13:03:08.303Z,54.55
2022-09-12T13:08:27.426Z,54.16
2022-09-12T13:13:40.049Z,54.07
2022-09-12T13:18:49.893Z,53.39
2022-09-12T13:24:12.749Z,52.23
2022-09-12T13:29:19.737Z,52.38
2022-09-12T13:34:24.905Z,51.76
2022-09-12T13:39:54.177Z,50.16
2022-09-12T13:45:04.764Z,49.89
2022-09-12T13:50:12.624Z,51.30
2022-09-12T13:55:32.776Z,49.81
2022-09-12T14:00:34.970Z,49.14
2022-09-12T14:05:39.685Z,50.24
2022-09-12T14:10:44.423Z,49.66
2022-09-12T14:15:49.063Z,48.47
2022-09-12T14:20:54.917Z,49.16
2022-09-12T14:25:59.948Z,48.49
2022-09-12T14:31:04.770Z,50.68
2022-09-12T14:36:24.562Z,49.73
2022-09-12T14:41:36.094Z,49.89
2022-09-12T14:46:39.454Z,50.70
2022-09-12T14:51:51.692Z,49.41
2022-09-12T14:56:56.731Z,49.18
2022-09-12T15:02:16.886Z,49.82
2022-09-12T15:07:32.430Z,49.91
2022-09-12T15:12:34.883Z,49.39
2022-09-12T15:17:36.281Z,48.93
2022-09-12T15:22:38.726Z,50.16
2022-09-12T15:27:42.783Z,50.38
2022-09-12T15:32:44.582Z,50.93
2022-09-12T15:37:47.133Z,51.68
2022-09-12T15:42:48.636Z,51.98
2022-09-12T15:47:50.156Z,50.83
2022-09-12T15:52:51.732Z,51.77
2022-09-12T15:57:53.521Z,52.50
2022-09-12T16:02:55.244Z,51.66
2022-09-12T16:07:56.733Z,52.94
2022-09-12T16:12:59.610Z,53.64
2022-09-12T16:18:01.013Z,51.72
2022-09-12T16:23:03.044Z,52.88
2022-09-12T16:28:05.755Z,54.22
2022-09-12T16:33:07.154Z,54.01
2022-09-12T16:38:08.530Z,54.24
2022-09-12T16:43:09.927Z,54.43
2022-09-12T16:48:11.391Z,53.05
2022-09-12T16:53:13.104Z,55.86
2022-09-12T16:58:14.516Z,55.09
2022-09-12T17:03:18.848Z,56.85
2022-09-12T17:08:22.772Z,58.76
2022-09-12T17:13:27.439Z,56.92
2022-09-12T17:18:38.946Z,57.37
2022-09-12T17:23:41.083Z,57.52
2022-09-12T17:28:42.604Z,59.70
2022-09-12T17:33:44.171Z,61.16
2022-09-12T17:38:46.022Z,64.67
2022-09-12T17:43:50.765Z,64.85
2022-09-12T17:48:53.935Z,65.25
2022-09-12T17:54:08.210Z,67.24
2022-09-12T17:59:14.582Z,69.85
2022-09-12T18:04:16.885Z,71.62
2022-09-12T18:09:21.910Z,72.38
2022-09-12T18:14:23.490Z,72.19
2022-09-12T18:19:24.977Z,74.65
2022-09-12T18:24:26.614Z,75.67
2022-09-12T18:29:28.258Z,76.76
2022-09-12T18:34:29.717Z,78.61
2022-09-12T18:39:31.280Z,81.16
2022-09-12T18:44:32.957Z,83.33
2022-09-12T18:49:34.423Z,84.23
2022-09-12T18:54:36.451Z,86.94
2022-09-12T18:59:37.989Z,86.97
2022-09-12T19:04:39.451Z,89.18
2022-09-12T19:09:40.957Z,90.01
2022-09-12T19:14:42.396Z,88.29
2022-09-12T19:19:44.063Z,87.85
2022-09-12T19:24:45.511Z,87.03
2022-09-12T19:29:47.030Z,88.25
2022-09-12T19:34:48.951Z,89.48
2022-09-12T19:39:50.398Z,89.16
2022-09-12T19:44:55.898Z,91.04
2022-09-12T19:49:57.419Z,90.58
2022-09-12T19:54:58.818Z,90.64
2022-09-12T20:00:00.355Z,92.33
2022-09-12T20:05:01.981Z,91.58
2022-09-12T20:10:03.566Z,92.54
2022-09-12T20:15:05.870Z,92.69
2022-09-12T20:20:11.338Z,93.74
2022-09-12T20:25:12.807Z,95.02
2022-09-12T20:30:15.350Z,94.74
2022-09-12T20:35:17.244Z,93.56
2022-09-12T20:40:18.668Z,94.90
2022-09-12T20:45:20.119Z,94.84
2022-09-12T20:50:21.645Z,94.54
2022-09-12T20:55:23.139Z,93.35
2022-09-12T21:00:24.776Z,92.36
2022-09-12T21:05:26.257Z,93.56
2022-09-12T21:10:27.714Z,93.25
2022-09-12T21:15:29.110Z,93.44
2022-09-12T21:20:31.221Z,92.38
2022-09-12T21:25:32.621Z,91.18
2022-09-12T21:30:34.008Z,91.02
2022-09-12T21:35:35.995Z,90.06
2022-09-12T21:40:37.422Z,90.39
2022-09-12T21:45:38.805Z,90.44
2022-09-12T21:50:40.278Z,87.87
2022-09-12T21:55:41.734Z,87.07
2022-09-12T22:00:43.921Z,85.89
2022-09-12T22:05:45.732Z,84.36
2022-09-12T22:10:47.504Z,84.22
2022-09-12T22:15:52.880Z,84.03
2022-09-12T22:21:22.040Z,83.51
2022-09-12T22:26:23.950Z,81.65
2022-09-12T22:31:26.978Z,80.77
2022-09-12T22:36:31.315Z,80.88
2022-09-12T22:41:33.372Z,81.09
2022-09-12T22:46:34.830Z,81.19
2022-09-12T22:51:36.589Z,80.45
2022-09-12T22:56:38.206Z,80.15
2022-09-12T23:01:39.652Z,79.46
2022-09-12T23:06:41.075Z,79.30
2022-09-12T23:11:42.459Z,78.77
2022-09-12T23:16:43.909Z,79.08
2022-09-12T23:21:45.305Z,79.58
2022-09-12T23:26:46.751Z,80.55
2022-09-12T23:31:48.553Z,80.36
2022-09-12T23:36:49.995Z,79.90
2022-09-12T23:41:52.776Z,80.19
2022-09-12T23:46:54.231Z,80.92
2022-09-12T23:51:55.636Z,81.22
2022-09-12T23:56:57.201Z,79.55
